Time;durP1;ratioP1;P1;durP2;ratioP2;P2;SDS_P1;SDS_P2;PMS_P1;PMS_P2;Temp;Humidity;BMP_temperature;BMP_pressure;BME280_temperature;BME280_humidity;BME280_pressure;Samples;Min_cycle;Max_cycle;Signal;HPM_P1;HPM_P2
2023/09/01 00:01:16;;;;;;;5.95;3.50;;;;;;;-145.00;74.17;73596.78;5045617;28;20076;-73
2023/09/01 00:03:43;;;;;;;5.43;3.40;;;;;;;-145.00;75.42;73619.69;5032817;28;20049;-73
2023/09/01 00:06:13;;;;;;;7.72;3.92;;;;;;;-145.00;77.08;73634.25;5030178;28;20048;-73
2023/09/01 00:08:39;;;;;;;7.38;4.15;;;;;;;-145.00;76.93;73619.69;5037518;28;20048;-73
2023/09/01 00:11:06;;;;;;;5.90;3.75;;;;;;;-145.00;76.39;73613.44;5051794;28;20060;-73
2023/09/01 00:13:34;;;;;;;6.13;3.83;;;;;;;-145.00;75.87;73596.78;5047302;28;20461;-73
2023/09/01 00:16:00;;;;;;;6.80;3.78;;;;;;;-145.00;75.35;73578.03;5040576;28;20045;-73
2023/09/01 00:18:27;;;;;;;10.95;4.30;;;;;;;-145.00;75.37;73584.28;5052052;28;20041;-72
2023/09/01 00:20:58;;;;;;;8.18;3.60;;;;;;;-145.00;75.63;73584.28;5052721;28;20102;-73
2023/09/01 00:23:24;;;;;;;5.57;4.13;;;;;;;-145.00;75.23;73584.28;5052113;28;20052;-73
2023/09/01 00:25:53;;;;;;;6.03;3.70;;;;;;;-145.00;75.60;73578.03;5043330;28;20048;-72
2023/09/01 00:28:19;;;;;;;9.10;4.32;;;;;;;-145.00;75.79;73580.13;5051875;28;20408;-72
2023/09/01 00:30:54;;;;;;;7.55;4.00;;;;;;;-145.00;76.07;73567.63;5052665;28;20048;-72
2023/09/01 00:33:21;;;;;;;5.22;3.90;;;;;;;-145.00;75.87;73569.72;5048986;28;20044;-73
2023/09/01 00:35:51;;;;;;;5.75;3.50;;;;;;;-145.00;76.47;73575.94;5033288;28;20045;-73
2023/09/01 00:38:17;;;;;;;5.90;4.00;;;;;;;-145.00;76.96;73590.53;5040568;28;20048;-73
2023/09/01 00:40:44;;;;;;;7.93;4.25;;;;;;;-145.00;76.98;73573.88;5034368;28;20052;-73
2023/09/01 00:43:10;;;;;;;5.88;4.15;;;;;;;-145.00;77.51;73563.47;5051833;28;20051;-73
2023/09/01 00:45:37;;;;;;;7.82;4.43;;;;;;;-145.00;77.59;73553.03;5052134;28;20055;-73
2023/09/01 00:48:07;;;;;;;5.70;4.18;;;;;;;-145.00;78.13;73573.88;5051592;28;20532;-72
2023/09/01 00:50:34;;;;;;;7.68;4.75;;;;;;;-145.00;77.87;73563.47;5043134;28;20072;-73
2023/09/01 00:53:02;;;;;;;5.25;3.83;;;;;;;-145.00;78.11;73550.97;5042685;28;20700;-73
2023/09/01 00:55:29;;;;;;;5.72;3.97;;;;;;;-145.00;78.02;73557.22;5042870;28;20063;-73
2023/09/01 00:57:56;;;;;;;5.35;3.65;;;;;;;-145.00;78.47;73550.97;5044726;28;20045;-73
2023/09/01 01:00:22;;;;;;;6.15;4.03;;;;;;;-145.00;77.29;73567.63;5051719;28;20064;-73
2023/09/01 01:02:49;;;;;;;7.32;4.47;;;;;;;-145.00;77.59;73590.53;5028737;28;20068;-73
2023/09/01 01:05:23;;;;;;;9.05;4.80;;;;;;;-145.00;78.00;73605.09;5043799;28;20049;-72
2023/09/01 01:07:57;;;;;;;6.68;4.45;;;;;;;-145.00;79.32;73634.25;5052023;28;20041;-72
2023/09/01 01:10:32;;;;;;;7.40;4.32;;;;;;;-145.00;80.36;73653.00;5051374;28;20124;-73
2023/09/01 01:13:04;;;;;;;6.70;4.47;;;;;;;-145.00;80.99;73659.25;5051637;28;20055;-73
2023/09/01 01:15:32;;;;;;;9.93;4.30;;;;;;;-145.00;82.32;73680.06;5043989;28;20060;-73
2023/09/01 01:18:04;;;;;;;9.15;4.45;;;;;;;-145.00;82.58;73667.56;5050238;28;20041;-73
2023/09/01 01:20:36;;;;;;;10.75;5.30;;;;;;;-145.00;81.88;73675.91;5051128;28;20586;-72
2023/09/01 01:23:09;;;;;;;7.20;4.75;;;;;;;-145.00;82.66;73675.91;5051154;28;20041;-72
2023/09/01 01:25:36;;;;;;;11.70;5.47;;;;;;;-145.00;83.93;73694.63;5042604;28;20068;-73
2023/09/01 01:28:07;;;;;;;8.15;5.35;;;;;;;-145.00;84.99;73705.03;5023089;28;20046;-73
2023/09/01 01:30:34;;;;;;;9.60;6.25;;;;;;;-145.00;86.16;73713.38;5046738;28;20053;-73
2023/09/01 01:33:01;;;;;;;12.48;6.18;;;;;;;-145.00;86.90;73717.53;5050918;28;20527;-73
2023/09/01 01:35:35;;;;;;;13.38;5.68;;;;;;;-145.00;87.54;73721.69;5050500;28;20048;-72
2023/09/01 01:38:18;;;;;;;11.82;6.20;;;;;;;-145.00;88.63;73738.34;5044295;28;20049;-73
2023/09/01 01:40:48;;;;;;;9.90;6.07;;;;;;;-145.00;89.31;73727.94;5049894;28;20049;-73
2023/09/01 01:43:19;;;;;;;10.35;6.32;;;;;;;-145.00;88.86;73675.91;5050668;28;20049;-72
2023/09/01 01:45:47;;;;;;;11.27;6.30;;;;;;;-145.00;87.92;73646.75;5050826;28;20045;-73
2023/09/01 01:48:13;;;;;;;10.55;6.20;;;;;;;-145.00;86.85;73625.91;5050858;28;20068;-73
2023/09/01 01:50:41;;;;;;;8.70;6.13;;;;;;;-145.00;85.93;73613.44;5040958;28;20493;-73
2023/09/01 01:53:09;;;;;;;10.95;7.18;;;;;;;-145.00;85.49;73596.78;5038910;28;20124;-72
2023/09/01 01:55:35;;;;;;;12.38;6.95;;;;;;;-145.00;85.39;73596.78;5041073;28;20056;-72
2023/09/01 01:58:04;;;;;;;10.00;6.40;;;;;;;-145.00;85.01;73567.63;5050228;28;20493;-72
2023/09/01 02:00:31;;;;;;;8.95;5.97;;;;;;;-145.00;84.86;73555.13;5050749;28;20041;-72
2023/09/01 02:02:59;;;;;;;9.05;5.70;;;;;;;-145.00;84.76;73546.81;5034790;28;20049;-73
2023/09/01 02:05:26;;;;;;;9.38;6.47;;;;;;;-145.00;84.03;73536.38;5042055;28;20041;-72
2023/09/01 02:07:52;;;;;;;12.05;7.00;;;;;;;-145.00;83.43;73525.97;5050927;28;20071;-73
2023/09/01 02:10:23;;;;;;;8.35;5.65;;;;;;;-145.00;83.32;73523.91;5050374;28;20416;-72
2023/09/01 02:12:49;;;;;;;9.35;6.13;;;;;;;-145.00;83.10;73532.22;5050941;28;20056;-73
2023/09/01 02:15:16;;;;;;;9.90;6.00;;;;;;;-145.00;83.22;73528.06;5037181;28;20049;-72
2023/09/01 02:17:43;;;;;;;12.20;6.50;;;;;;;-145.00;83.04;73530.16;5041012;28;20045;-72
2023/09/01 02:20:16;;;;;;;9.90;5.97;;;;;;;-145.00;83.19;73525.97;5037728;28;20049;-72
2023/09/01 02:22:43;;;;;;;9.18;6.15;;;;;;;-145.00;82.90;73523.91;5050500;28;20056;-73
2023/09/01 02:25:10;;;;;;;9.52;6.30;;;;;;;-145.00;83.13;73530.16;5040249;28;20056;-73
2023/09/01 02:27:39;;;;;;;10.90;6.10;;;;;;;-145.00;83.27;73530.16;5044876;28;20048;-72
2023/09/01 02:30:11;;;;;;;8.50;6.20;;;;;;;-145.00;83.43;73507.25;5050072;28;20056;-73
2023/09/01 02:32:38;;;;;;;11.02;6.32;;;;;;;-145.00;83.19;73507.25;5036675;28;20053;-73
2023/09/01 02:35:08;;;;;;;9.98;6.40;;;;;;;-145.00;82.89;73496.81;5049900;28;20060;-72
2023/09/01 02:37:34;;;;;;;12.45;7.45;;;;;;;-145.00;82.85;73501.00;5049924;28;20040;-71
2023/09/01 02:40:01;;;;;;;11.07;7.10;;;;;;;-145.00;82.97;73509.31;5044506;28;20051;-73
2023/09/01 02:42:28;;;;;;;8.82;6.43;;;;;;;-145.00;83.18;73503.06;5041730;28;20048;-72
2023/09/01 02:44:55;;;;;;;13.75;7.93;;;;;;;-145.00;83.16;73507.25;5042209;28;20040;-73
2023/09/01 02:47:22;;;;;;;8.77;6.55;;;;;;;-145.00;83.59;73511.41;5042838;28;20049;-72
2023/09/01 02:49:49;;;;;;;10.90;6.93;;;;;;;-145.00;83.14;73501.00;5049053;28;20049;-72
2023/09/01 02:52:15;;;;;;;10.73;7.25;;;;;;;-145.00;83.13;73488.50;5040367;28;20738;-72
2023/09/01 02:54:42;;;;;;;10.75;7.45;;;;;;;-145.00;82.54;73490.59;5039543;28;20050;-72
2023/09/01 02:57:08;;;;;;;12.52;7.78;;;;;;;-145.00;82.59;73492.66;5044916;28;20065;-74
2023/09/01 02:59:35;;;;;;;11.00;7.80;;;;;;;-145.00;82.71;73492.66;5046745;28;20067;-72
2023/09/01 03:02:03;;;;;;;11.43;7.47;;;;;;;-145.00;82.68;73480.16;5042725;28;20045;-72
2023/09/01 03:04:30;;;;;;;10.45;7.32;;;;;;;-145.00;83.34;73509.31;5049567;28;20394;-72
2023/09/01 03:06:56;;;;;;;13.13;8.27;;;;;;;-145.00;83.12;73505.16;5049525;28;20041;-74
2023/09/01 03:09:23;;;;;;;11.73;7.13;;;;;;;-145.00;82.75;73494.75;5049029;28;20052;-74
2023/09/01 03:11:49;;;;;;;10.43;6.75;;;;;;;-145.00;82.43;73513.47;5049613;28;20527;-74
2023/09/01 03:14:16;;;;;;;10.88;7.18;;;;;;;-145.00;82.38;73513.47;5047652;28;20068;-74
2023/09/01 03:16:43;;;;;;;10.50;7.05;;;;;;;-145.00;84.82;73571.78;5049482;28;20048;-74
2023/09/01 03:19:11;;;;;;;8.60;6.68;;;;;;;-145.00;86.67;73590.53;5049481;28;20566;-74
2023/09/01 03:21:37;;;;;;;9.80;7.13;;;;;;;-145.00;85.46;73565.53;5049567;28;20489;-73
2023/09/01 03:24:04;;;;;;;11.00;6.70;;;;;;;-145.00;84.10;73525.97;5046612;28;20044;-74
2023/09/01 03:26:31;;;;;;;9.55;6.47;;;;;;;-145.00;83.47;73507.25;5018330;28;20045;-74
2023/09/01 03:28:57;;;;;;;11.65;6.78;;;;;;;-145.00;83.21;73513.47;5028324;28;20037;-74
2023/09/01 03:31:24;;;;;;;11.27;6.60;;;;;;;-145.00;82.48;73498.91;5032248;28;20045;-74
2023/09/01 03:33:50;;;;;;;9.73;5.88;;;;;;;-145.00;82.42;73505.16;5036846;28;20066;-72
2023/09/01 03:36:18;;;;;;;7.45;5.88;;;;;;;-145.00;82.16;73492.66;5048868;28;20045;-72
2023/09/01 03:38:45;;;;;;;10.23;6.43;;;;;;;-145.00;81.86;73482.25;5039528;28;20048;-72
2023/09/01 03:41:11;;;;;;;7.95;5.82;;;;;;;-145.00;81.98;73488.50;5039850;28;20042;-73
2023/09/01 03:43:38;;;;;;;9.18;5.57;;;;;;;-145.00;81.77;73480.16;5049870;28;20044;-73
2023/09/01 03:46:04;;;;;;;9.57;5.80;;;;;;;-145.00;81.83;73482.25;5052708;28;20405;-72
2023/09/01 03:48:31;;;;;;;10.18;5.40;;;;;;;-145.00;81.47;73471.84;5053097;28;20080;-71
2023/09/01 03:51:10;;;;;;;7.15;5.13;;;;;;;-145.00;81.84;73480.16;5052630;28;20048;-73
2023/09/01 03:53:39;;;;;;;7.82;5.07;;;;;;;-145.00;81.34;73473.94;5040071;28;20044;-74
2023/09/01 03:56:08;;;;;;;10.05;5.75;;;;;;;-145.00;81.55;73476.00;5036093;28;20041;-74
2023/09/01 03:58:35;;;;;;;8.75;5.78;;;;;;;-145.00;81.92;73480.16;5044318;28;20124;-74
2023/09/01 04:01:01;;;;;;;7.68;5.25;;;;;;;-145.00;81.81;73476.00;5052103;28;20045;-73
2023/09/01 04:03:28;;;;;;;8.07;5.43;;;;;;;-145.00;81.39;73480.16;5047256;28;20043;-74
2023/09/01 04:05:56;;;;;;;8.15;5.75;;;;;;;-145.00;81.48;73484.34;5043761;28;20049;-74
2023/09/01 04:08:24;;;;;;;9.35;5.75;;;;;;;-145.00;81.26;73484.34;5052182;28;20047;-73
2023/09/01 04:10:52;;;;;;;10.15;6.28;;;;;;;-145.00;81.98;73515.56;5052239;28;20056;-74
2023/09/01 04:13:18;;;;;;;9.38;6.22;;;;;;;-145.00;82.23;73530.16;5043504;28;20052;-74
2023/09/01 04:15:45;;;;;;;8.18;5.90;;;;;;;-145.00;82.00;73509.31;5052289;28;20052;-72
2023/09/01 04:18:11;;;;;;;9.05;6.22;;;;;;;-145.00;82.19;73517.66;5042108;28;20041;-72
2023/09/01 04:20:37;;;;;;;9.50;5.90;;;;;;;-145.00;82.76;73540.56;5036478;28;20045;-71
2023/09/01 04:23:05;;;;;;;7.65;5.68;;;;;;;-145.00;82.31;73528.06;5051660;28;20512;-73
2023/09/01 04:25:34;;;;;;;9.82;6.20;;;;;;;-145.00;81.84;73509.31;5037176;28;20451;-73
2023/09/01 04:28:02;;;;;;;8.73;6.03;;;;;;;-145.00;81.91;73509.31;5045843;28;20107;-72
2023/09/01 04:30:28;;;;;;;10.63;6.57;;;;;;;-145.00;82.72;73530.16;5037624;28;20396;-74
2023/09/01 04:32:54;;;;;;;8.35;5.70;;;;;;;-145.00;82.51;73528.06;5044939;28;20041;-73
2023/09/01 04:35:21;;;;;;;8.50;5.75;;;;;;;-145.00;81.98;73519.72;5051497;28;20045;-72
2023/09/01 04:37:47;;;;;;;8.95;6.10;;;;;;;-145.00;81.83;73505.16;5051737;28;20041;-71
2023/09/01 04:40:14;;;;;;;8.35;5.43;;;;;;;-145.00;81.76;73496.81;5044419;28;20451;-72
2023/09/01 04:42:40;;;;;;;8.15;5.70;;;;;;;-145.00;82.03;73492.66;5051832;28;20037;-72
2023/09/01 04:45:09;;;;;;;11.25;6.47;;;;;;;-145.00;82.00;73492.66;5051301;28;20053;-71
2023/09/01 04:47:36;;;;;;;8.65;6.22;;;;;;;-145.00;82.03;73486.41;5051723;28;20045;-72
2023/09/01 04:50:02;;;;;;;8.85;5.72;;;;;;;-145.00;82.06;73484.34;5050052;28;20088;-74
2023/09/01 04:52:29;;;;;;;9.18;6.40;;;;;;;-145.00;82.85;73542.63;5051547;28;20564;-72
2023/09/01 04:54:55;;;;;;;8.48;6.20;;;;;;;-145.00;83.85;73546.81;5044733;28;20444;-74
2023/09/01 04:57:22;;;;;;;10.13;6.68;;;;;;;-145.00;83.38;73528.06;5051533;28;20059;-74
2023/09/01 04:59:50;;;;;;;10.65;6.20;;;;;;;-145.00;82.34;73517.66;5050194;28;20504;-73
2023/09/01 05:02:18;;;;;;;10.23;6.30;;;;;;;-145.00;82.25;73517.66;5027032;28;20564;-72
2023/09/01 05:04:44;;;;;;;11.30;6.20;;;;;;;-145.00;82.51;73528.06;5044549;28;20045;-72
2023/09/01 05:07:29;;;;;;;11.38;6.95;;;;;;;-145.00;83.26;73542.63;5052011;28;20523;-74
2023/09/01 05:09:58;;;;;;;8.55;6.00;;;;;;;-145.00;83.99;73540.56;5050440;28;20083;-73
2023/09/01 05:12:24;;;;;;;10.18;5.15;;;;;;;-145.00;84.61;73567.63;5038409;28;20489;-74
2023/09/01 05:15:09;;;;;;;7.60;4.90;;;;;;;-145.00;84.65;73550.97;5041940;28;20067;-73
2023/09/01 05:17:40;;;;;;;8.70;5.57;;;;;;;-145.00;84.08;73528.06;5033642;28;20044;-73
2023/09/01 05:20:08;;;;;;;7.53;5.28;;;;;;;-145.00;83.64;73525.97;5050462;28;20545;-72
2023/09/01 05:22:34;;;;;;;8.05;5.70;;;;;;;-145.00;83.56;73517.66;5044536;28;20088;-72
2023/09/01 05:25:02;;;;;;;9.45;5.78;;;;;;;-145.00;83.44;73519.72;5030745;28;20049;-72
2023/09/01 05:27:29;;;;;;;11.48;7.40;;;;;;;-145.00;84.31;73532.22;5050617;28;20064;-72
2023/09/01 05:29:56;;;;;;;9.77;6.95;;;;;;;-145.00;84.34;73519.72;5050972;28;20041;-72
2023/09/01 05:32:23;;;;;;;11.50;7.43;;;;;;;-145.00;83.86;73513.47;5050651;28;20417;-73
2023/09/01 05:34:51;;;;;;;9.43;7.03;;;;;;;-145.00;84.58;73542.63;5051003;28;20485;-72
2023/09/01 05:37:17;;;;;;;9.88;6.93;;;;;;;-145.00;84.55;73536.38;5045520;28;20037;-72
2023/09/01 05:39:44;;;;;;;11.00;6.72;;;;;;;-145.00;84.45;73521.81;5050784;28;20496;-72
2023/09/01 05:42:11;;;;;;;9.85;6.22;;;;;;;-145.00;84.16;73507.25;5042127;28;20041;-72
2023/09/01 05:44:38;;;;;;;10.10;7.38;;;;;;;-145.00;83.93;73496.81;5039339;28;20054;-72
2023/09/01 05:47:05;;;;;;;12.95;7.10;;;;;;;-145.00;83.43;73488.50;5048188;28;20044;-72
2023/09/01 05:49:32;;;;;;;9.60;6.95;;;;;;;-145.00;83.02;73486.41;5043053;28;20551;-73
2023/09/01 05:52:00;;;;;;;11.65;6.63;;;;;;;-145.00;82.99;73490.59;5052427;28;20041;-73
2023/09/01 05:54:26;;;;;;;13.20;6.60;;;;;;;-145.00;83.14;73494.75;5044443;28;20058;-74
2023/09/01 05:56:53;;;;;;;13.23;6.55;;;;;;;-145.00;84.15;73496.81;5038076;28;20041;-74
2023/09/01 05:59:19;;;;;;;9.02;6.22;;;;;;;-145.00;84.26;73511.41;5052143;28;20036;-74
2023/09/01 06:01:46;;;;;;;8.35;6.05;;;;;;;-145.00;83.18;73492.66;5051891;28;20052;-74
2023/09/01 06:04:13;;;;;;;8.63;6.13;;;;;;;-145.00;82.45;73476.00;5050871;28;20041;-74
2023/09/01 06:06:40;;;;;;;7.65;5.95;;;;;;;-145.00;83.02;73488.50;5051703;28;20045;-74
2023/09/01 06:09:08;;;;;;;8.40;5.85;;;;;;;-145.00;83.02;73482.25;5051410;28;20056;-74
2023/09/01 06:11:35;;;;;;;10.00;5.80;;;;;;;-145.00;82.62;73473.94;5052372;28;20136;-74
2023/09/01 06:14:02;;;;;;;7.80;5.97;;;;;;;-145.00;83.80;73503.06;5051962;28;20045;-74
2023/09/01 06:16:28;;;;;;;7.43;5.53;;;;;;;-145.00;83.67;73496.81;5045140;28;20045;-75
2023/09/01 06:18:56;;;;;;;8.85;5.13;;;;;;;-145.00;82.74;73459.34;5052185;28;20048;-74
2023/09/01 06:21:22;;;;;;;9.63;5.32;;;;;;;-145.00;81.59;73446.84;5049511;28;20052;-74
2023/09/01 06:23:49;;;;;;;6.70;4.75;;;;;;;-145.00;81.41;73432.28;5050410;28;20040;-75
2023/09/01 06:26:18;;;;;;;6.65;4.70;;;;;;;-145.00;81.32;73426.03;5033755;28;20041;-74
2023/09/01 06:28:45;;;;;;;6.13;4.22;;;;;;;-145.00;80.26;73448.94;5050680;28;20049;-75
2023/09/01 06:31:13;;;;;;;4.93;4.18;;;;;;;-145.00;80.52;73442.69;5050058;28;20045;-74
2023/09/01 06:33:42;;;;;;;6.82;3.80;;;;;;;-145.00;80.63;73451.03;5050617;28;20041;-76
2023/09/01 06:36:08;;;;;;;7.25;3.90;;;;;;;-145.00;80.45;73438.53;5049370;28;20132;-74
2023/09/01 06:38:35;;;;;;;6.05;3.88;;;;;;;-145.00;79.94;73413.53;5049848;28;20047;-74
2023/09/01 06:41:03;;;;;;;5.68;3.90;;;;;;;-145.00;79.55;73423.97;5049787;28;20037;-74
2023/09/01 06:43:31;;;;;;;5.93;3.95;;;;;;;-145.00;78.68;73396.88;5049844;28;20079;-75
2023/09/01 06:45:58;;;;;;;7.78;3.33;;;;;;;-145.00;77.81;73382.31;5049826;28;20579;-74
2023/09/01 06:48:24;;;;;;;5.30;3.60;;;;;;;-145.00;78.09;73365.66;5049241;28;20044;-74
2023/09/01 06:50:51;;;;;;;4.72;3.60;;;;;;;-145.00;78.30;73390.66;5049648;28;20045;-74
2023/09/01 06:53:17;;;;;;;5.95;3.70;;;;;;;-145.00;77.36;73376.06;5049017;28;20045;-74
2023/09/01 06:55:46;;;;;;;4.93;3.50;;;;;;;-145.00;77.03;73367.75;5033100;28;20048;-75
2023/09/01 06:58:12;;;;;;;7.70;3.65;;;;;;;-145.00;77.27;73374.00;5048963;28;20056;-74
2023/09/01 07:00:40;;;;;;;6.10;3.47;;;;;;;-145.00;77.11;73390.66;5049691;28;20045;-76
2023/09/01 07:03:07;;;;;;;5.72;3.40;;;;;;;-145.00;77.72;73384.41;5048902;28;20041;-75
2023/09/01 07:05:33;;;;;;;6.15;3.20;;;;;;;-145.00;76.48;73380.22;5049302;28;20519;-75
2023/09/01 07:08:00;;;;;;;5.15;3.42;;;;;;;-145.00;76.29;73371.91;5049554;28;20041;-75
2023/09/01 07:10:26;;;;;;;5.95;3.15;;;;;;;-145.00;76.55;73371.91;5049306;28;20049;-74
2023/09/01 07:12:53;;;;;;;6.93;3.38;;;;;;;-145.00;76.88;73342.75;5049518;28;20052;-74
2023/09/01 07:15:20;;;;;;;6.00;3.13;;;;;;;-145.00;75.32;73330.25;5051424;28;20048;-74
2023/09/01 07:17:48;;;;;;;4.88;2.80;;;;;;;-145.00;74.67;73299.03;5053376;28;20048;-74
2023/09/01 07:20:14;;;;;;;6.32;3.20;;;;;;;-145.00;75.41;73284.47;5052640;28;20045;-74
2023/09/01 07:22:41;;;;;;;4.53;2.72;;;;;;;-145.00;73.65;73301.13;5053503;28;20037;-74
2023/09/01 07:25:10;;;;;;;3.85;2.55;;;;;;;-145.00;74.18;73313.59;5052158;28;20056;-74
2023/09/01 07:27:37;;;;;;;3.65;2.42;;;;;;;-145.00;73.75;73313.59;5053340;28;20037;-74
2023/09/01 07:30:04;;;;;;;4.55;2.53;;;;;;;-145.00;73.84;73321.94;5044595;28;20053;-74
2023/09/01 07:32:31;;;;;;;3.88;2.40;;;;;;;-145.00;72.87;73303.19;5053311;28;20094;-74
2023/09/01 07:34:59;;;;;;;4.35;2.22;;;;;;;-145.00;72.91;73292.78;5053063;28;20049;-74
2023/09/01 07:37:26;;;;;;;5.90;2.42;;;;;;;-145.00;72.22;73294.88;5052505;28;20121;-74
2023/09/01 07:39:52;;;;;;;4.10;2.30;;;;;;;-145.00;70.62;73278.22;5052951;28;20488;-75
2023/09/01 07:42:19;;;;;;;3.65;2.42;;;;;;;-145.00;70.27;73278.22;5049574;28;20416;-74
2023/09/01 07:44:46;;;;;;;4.22;2.17;;;;;;;-145.00;70.59;73261.56;5047848;28;20496;-75
2023/09/01 07:47:13;;;;;;;3.28;2.20;;;;;;;-145.00;70.40;73271.97;5052501;28;20048;-74
2023/09/01 07:49:39;;;;;;;5.97;2.53;;;;;;;-145.00;69.97;73259.47;5052984;28;20412;-76
2023/09/01 07:52:07;;;;;;;4.47;2.30;;;;;;;-145.00;70.98;73246.97;5052498;28;20053;-75
2023/09/01 07:54:33;;;;;;;5.28;2.60;;;;;;;-145.00;70.21;73230.31;5051507;28;20076;-76
2023/09/01 07:57:00;;;;;;;5.22;2.40;;;;;;;-145.00;70.16;73234.50;5052450;28;20041;-75
2023/09/01 07:59:26;;;;;;;4.22;2.25;;;;;;;-145.00;69.04;73205.34;5052471;28;20049;-75
2023/09/01 08:01:53;;;;;;;2.75;2.15;;;;;;;-145.00;70.73;73213.66;5052845;28;20037;-75
2023/09/01 08:04:19;;;;;;;3.90;2.30;;;;;;;-145.00;71.19;73172.03;5051946;28;20484;-75
2023/09/01 08:06:47;;;;;;;4.38;2.15;;;;;;;-145.00;68.86;73176.19;5052374;28;20045;-75
2023/09/01 08:09:15;;;;;;;4.05;2.30;;;;;;;-145.00;66.84;73167.88;5052187;28;20132;-75
2023/09/01 08:11:42;;;;;;;3.13;1.70;;;;;;;-145.00;65.25;73128.31;5052754;28;20041;-76
2023/09/01 08:14:08;;;;;;;4.70;2.05;;;;;;;-145.00;64.62;73115.81;5052328;28;20064;-75
2023/09/01 08:16:35;;;;;;;3.58;1.80;;;;;;;-145.00;66.94;73076.25;5052566;28;20048;-76
2023/09/01 08:19:03;;;;;;;6.90;1.90;;;;;;;-145.00;64.69;73017.97;5056689;28;20049;-75
2023/09/01 08:21:30;;;;;;;3.33;1.60;;;;;;;-145.00;62.21;73030.47;5057355;28;20041;-75
2023/09/01 08:23:57;;;;;;;2.38;1.40;;;;;;;-145.00;63.79;73061.69;5055801;28;20041;-76
2023/09/01 08:26:25;;;;;;;2.40;1.50;;;;;;;-145.00;64.57;73080.44;5053854;28;20041;-75
2023/09/01 08:28:52;;;;;;;4.38;1.67;;;;;;;-145.00;62.99;73105.41;5055844;28;20051;-75
2023/09/01 08:31:18;;;;;;;2.33;1.48;;;;;;;-145.00;62.32;73076.25;5053504;28;20056;-75
2023/09/01 08:33:45;;;;;;;2.40;1.55;;;;;;;-145.00;62.31;73082.50;5052968;28;20041;-76
2023/09/01 08:36:12;;;;;;;3.60;1.60;;;;;;;-145.00;61.87;73080.44;5052045;28;20056;-74
2023/09/01 08:38:38;;;;;;;2.97;1.50;;;;;;;-145.00;61.37;73097.09;5053036;28;20095;-75
2023/09/01 08:41:06;;;;;;;3.67;1.60;;;;;;;-145.00;62.57;73084.59;5051419;28;20132;-75
2023/09/01 08:43:36;;;;;;;1.90;1.30;;;;;;;-145.00;61.30;73067.94;5052207;28;20045;-75
2023/09/01 08:46:04;;;;;;;3.20;1.50;;;;;;;-145.00;62.17;73038.78;5051600;28;20048;-75
2023/09/01 08:48:31;;;;;;;2.80;1.60;;;;;;;-145.00;62.64;73017.97;5052078;28;20079;-75
2023/09/01 08:51:03;;;;;;;2.65;1.30;;;;;;;-145.00;61.39;73022.13;5051636;28;20037;-75
2023/09/01 08:53:30;;;;;;;2.95;1.38;;;;;;;-145.00;60.42;72984.66;5051816;28;20041;-75
2023/09/01 08:55:56;;;;;;;2.67;1.38;;;;;;;-145.00;59.17;72945.09;5048746;28;20048;-75
2023/09/01 08:58:23;;;;;;;2.75;1.30;;;;;;;-145.00;59.02;72928.44;5051377;28;20436;-75
2023/09/01 09:00:51;;;;;;;2.90;1.60;;;;;;;-145.00;56.41;72872.25;5051872;28;20059;-76
2023/09/01 09:03:19;;;;;;;3.22;1.42;;;;;;;-145.00;56.15;72874.31;5051010;28;20065;-75
2023/09/01 09:05:46;;;;;;;1.73;1.35;;;;;;;-145.00;55.81;72872.25;5051551;28;20044;-73
2023/09/01 09:08:12;;;;;;;3.47;1.30;;;;;;;-145.00;55.83;72897.22;5051183;28;20049;-75
2023/09/01 09:10:42;;;;;;;3.05;1.20;;;;;;;-145.00;55.48;72807.72;5051921;28;20047;-74
2023/09/01 09:13:24;;;;;;;2.30;1.25;;;;;;;-145.00;51.95;72805.63;5052495;28;20056;-74
2023/09/01 09:16:08;;;;;;;5.90;1.80;;;;;;;-145.00;52.89;72801.47;5052674;28;20037;-74
2023/09/01 09:18:35;;;;;;;2.92;1.42;;;;;;;-145.00;50.95;72730.69;5052493;28;20048;-74
2023/09/01 09:21:02;;;;;;;2.78;1.30;;;;;;;-145.00;52.16;72726.53;5051715;28;20049;-73
2023/09/01 09:23:43;;;;;;;3.67;1.60;;;;;;;-145.00;51.34;72730.69;5051718;28;20049;-75
2023/09/01 09:26:09;;;;;;;4.40;1.70;;;;;;;-145.00;50.81;72747.34;5046989;28;20053;-73
2023/09/01 09:28:36;;;;;;;3.30;1.58;;;;;;;-145.00;52.29;72805.63;5051556;28;20052;-74
2023/09/01 09:31:03;;;;;;;3.70;1.40;;;;;;;-145.00;51.40;72772.31;5051060;28;20133;-73
2023/09/01 09:33:32;;;;;;;2.20;1.35;;;;;;;-145.00;51.46;72741.09;5050858;28;20045;-74
2023/09/01 09:35:59;;;;;;;4.55;1.30;;;;;;;-145.00;51.13;72722.34;5050830;28;20083;-74
2023/09/01 09:38:39;;;;;;;3.30;1.70;;;;;;;-145.00;50.36;72714.03;5049468;28;20047;-73
2023/09/01 09:41:06;;;;;;;3.95;1.38;;;;;;;-145.00;49.39;72659.91;5050529;28;20049;-74
2023/09/01 09:43:44;;;;;;;3.00;1.60;;;;;;;-145.00;47.54;72678.63;5051088;28;20045;-75
2023/09/01 09:46:10;;;;;;;3.25;1.10;;;;;;;-145.00;46.96;72709.88;5050087;28;20103;-75
2023/09/01 09:48:39;;;;;;;2.05;0.98;;;;;;;-145.00;48.85;72651.59;5047613;28;20038;-75
2023/09/01 09:51:07;;;;;;;4.07;2.10;;;;;;;-145.00;47.96;72630.75;5046372;28;20071;-75
2023/09/01 09:53:35;;;;;;;3.10;1.02;;;;;;;-145.00;47.09;72580.81;5051115;28;20063;-73
2023/09/01 09:56:19;;;;;;;4.10;1.35;;;;;;;-145.00;46.06;72539.16;5046294;28;20400;-74
2023/09/01 09:58:47;;;;;;;2.25;1.10;;;;;;;-145.00;46.67;72580.81;5051025;28;20044;-75
2023/09/01 10:01:18;;;;;;;2.17;1.27;;;;;;;-145.00;45.91;72659.91;5050604;28;20045;-75
2023/09/01 10:03:48;;;;;;;2.25;1.30;;;;;;;-145.00;45.49;72618.28;5050876;28;20049;-74
2023/09/01 10:06:17;;;;;;;4.70;1.33;;;;;;;-145.00;46.62;72674.47;5050157;28;20493;-74
2023/09/01 10:08:44;;;;;;;2.30;1.13;;;;;;;-145.00;46.27;72622.44;5050895;28;20126;-75
2023/09/01 10:11:13;;;;;;;1.70;1.15;;;;;;;-145.00;45.42;72580.81;5050146;28;20056;-76
2023/09/01 10:13:40;;;;;;;2.85;1.40;;;;;;;-145.00;45.26;72580.81;5035169;28;20068;-74
2023/09/01 10:16:08;;;;;;;2.25;1.20;;;;;;;-145.00;44.12;72547.50;5049772;28;20053;-74
2023/09/01 10:18:34;;;;;;;4.43;1.38;;;;;;;-145.00;44.52;72584.97;5049997;28;20037;-74
2023/09/01 10:21:03;;;;;;;6.43;1.50;;;;;;;-145.00;45.07;72593.28;5050279;28;20064;-75
2023/09/01 10:23:30;;;;;;;2.10;1.30;;;;;;;-145.00;46.21;72589.13;5050275;28;20489;-76
2023/09/01 10:26:13;;;;;;;3.42;1.48;;;;;;;-145.00;47.00;72603.69;5045054;28;20639;-73
2023/09/01 10:28:54;;;;;;;3.70;1.65;;;;;;;-145.00;46.89;72620.34;5034307;28;20079;-74
2023/09/01 10:31:20;;;;;;;2.67;1.48;;;;;;;-145.00;46.37;72584.97;5049385;28;20126;-75
2023/09/01 10:33:47;;;;;;;3.25;1.50;;;;;;;-145.00;45.74;72584.97;5050146;28;20431;-74
2023/09/01 10:36:17;;;;;;;2.90;1.60;;;;;;;-145.00;47.57;72541.25;5039144;28;20056;-75
2023/09/01 10:38:46;;;;;;;2.63;1.40;;;;;;;-145.00;46.40;72557.91;5034399;28;20072;-75
2023/09/01 10:41:45;;;;;;;5.60;1.63;;;;;;;-145.00;46.62;72518.34;5050038;28;20060;-75
2023/09/01 10:44:11;;;;;;;3.53;1.58;;;;;;;-145.00;46.43;72535.00;5041575;28;20041;-74
2023/09/01 10:46:38;;;;;;;3.75;1.30;;;;;;;-145.00;45.95;72537.09;5041572;28;20057;-74
2023/09/01 10:49:07;;;;;;;3.80;1.40;;;;;;;-145.00;46.12;72555.81;5049413;28;20047;-74
2023/09/01 10:51:40;;;;;;;3.13;1.60;;;;;;;-145.00;47.02;72547.50;5049842;28;20045;-75
2023/09/01 10:54:41;;;;;;;2.75;1.27;;;;;;;-145.00;45.35;72526.69;5046431;28;20106;-74
2023/09/01 10:57:13;;;;;;;1.95;1.20;;;;;;;-145.00;45.75;72535.00;5040302;28;20161;-74
2023/09/01 10:59:40;;;;;;;2.80;1.20;;;;;;;-145.00;44.50;72535.00;5046313;28;20098;-74
2023/09/01 11:02:22;;;;;;;3.10;1.42;;;;;;;-145.00;44.82;72512.09;5044530;28;20053;-75
2023/09/01 11:04:49;;;;;;;3.00;1.30;;;;;;;-145.00;45.23;72510.03;5046947;28;20128;-76
2023/09/01 11:07:17;;;;;;;5.05;1.40;;;;;;;-145.00;44.62;72630.75;5049138;28;20036;-75
2023/09/01 11:09:57;;;;;;;3.90;1.20;;;;;;;-145.00;45.02;72612.03;5034095;28;20045;-75
2023/09/01 11:12:32;;;;;;;3.03;1.65;;;;;;;-145.00;46.04;72584.97;5049143;28;20102;-75
2023/09/01 11:15:01;;;;;;;2.85;1.20;;;;;;;-145.00;45.85;72541.25;5050056;28;20068;-75
2023/09/01 11:17:43;;;;;;;3.45;1.20;;;;;;;-145.00;45.50;72549.56;5049047;28;20123;-75
2023/09/01 11:20:12;;;;;;;3.17;1.20;;;;;;;-145.00;44.83;72574.56;5048732;28;20424;-74